sensor_id;sensor_type;location;lat;lon;timestamp;P1;durP1;ratioP1;P2;durP2;ratioP2
21175;SDS011;10746;50.178;8.186;2022-12-07T00:00:09;28.13;;;12.23;;
21175;SDS011;10746;50.178;8.186;2022-12-07T00:02:36;29.50;;;13.07;;
21175;SDS011;10746;50.178;8.186;2022-12-07T00:05:05;30.10;;;12.13;;
21175;SDS011;10746;50.178;8.186;2022-12-07T00:07:32;26.27;;;12.30;;
21175;SDS011;10746;50.178;8.186;2022-12-07T00:09:59;27.23;;;12.07;;
21175;SDS011;10746;50.178;8.186;2022-12-07T00:12:25;26.40;;;12.30;;
21175;SDS011;10746;50.178;8.186;2022-12-07T00:14:52;29.07;;;13.70;;
21175;SDS011;10746;50.178;8.186;2022-12-07T00:17:19;27.17;;;11.60;;
21175;SDS011;10746;50.178;8.186;2022-12-07T00:19:46;134.07;;;15.87;;
21175;SDS011;10746;50.178;8.186;2022-12-07T00:22:14;29.80;;;12.47;;
21175;SDS011;10746;50.178;8.186;2022-12-07T00:24:40;22.73;;;10.70;;
21175;SDS011;10746;50.178;8.186;2022-12-07T00:27:07;30.00;;;11.77;;
21175;SDS011;10746;50.178;8.186;2022-12-07T00:29:34;31.40;;;11.67;;
21175;SDS011;10746;50.178;8.186;2022-12-07T00:32:02;24.80;;;11.20;;
21175;SDS011;10746;50.178;8.186;2022-12-07T00:34:29;24.83;;;11.70;;
21175;SDS011;10746;50.178;8.186;2022-12-07T00:36:55;26.73;;;10.50;;
21175;SDS011;10746;50.178;8.186;2022-12-07T00:39:23;25.17;;;11.60;;
21175;SDS011;10746;50.178;8.186;2022-12-07T00:41:50;27.63;;;12.07;;
21175;SDS011;10746;50.178;8.186;2022-12-07T00:44:17;22.77;;;10.60;;
21175;SDS011;10746;50.178;8.186;2022-12-07T00:46:44;25.83;;;11.40;;
21175;SDS011;10746;50.178;8.186;2022-12-07T00:49:11;22.13;;;10.60;;
21175;SDS011;10746;50.178;8.186;2022-12-07T00:51:38;25.73;;;11.50;;
21175;SDS011;10746;50.178;8.186;2022-12-07T00:54:04;24.73;;;11.17;;
21175;SDS011;10746;50.178;8.186;2022-12-07T00:56:32;22.40;;;10.30;;
21175;SDS011;10746;50.178;8.186;2022-12-07T00:59:00;22.50;;;10.40;;
21175;SDS011;10746;50.178;8.186;2022-12-07T01:01:29;21.70;;;9.57;;
21175;SDS011;10746;50.178;8.186;2022-12-07T01:03:58;19.43;;;9.17;;
21175;SDS011;10746;50.178;8.186;2022-12-07T01:06:26;22.47;;;9.80;;
21175;SDS011;10746;50.178;8.186;2022-12-07T01:08:53;21.30;;;9.87;;
21175;SDS011;10746;50.178;8.186;2022-12-07T01:11:21;25.33;;;9.27;;
21175;SDS011;10746;50.178;8.186;2022-12-07T01:13:50;25.33;;;10.30;;
21175;SDS011;10746;50.178;8.186;2022-12-07T01:16:18;23.30;;;9.73;;
21175;SDS011;10746;50.178;8.186;2022-12-07T01:18:46;21.43;;;9.93;;
21175;SDS011;10746;50.178;8.186;2022-12-07T01:21:15;18.63;;;9.20;;
21175;SDS011;10746;50.178;8.186;2022-12-07T01:23:44;18.80;;;9.10;;
21175;SDS011;10746;50.178;8.186;2022-12-07T01:26:11;21.47;;;8.50;;
21175;SDS011;10746;50.178;8.186;2022-12-07T01:28:40;17.87;;;8.53;;
21175;SDS011;10746;50.178;8.186;2022-12-07T01:31:09;18.37;;;8.97;;
21175;SDS011;10746;50.178;8.186;2022-12-07T01:33:39;18.00;;;7.97;;
21175;SDS011;10746;50.178;8.186;2022-12-07T01:36:08;17.97;;;8.77;;
21175;SDS011;10746;50.178;8.186;2022-12-07T01:38:39;15.30;;;7.47;;
21175;SDS011;10746;50.178;8.186;2022-12-07T01:41:06;13.33;;;6.70;;
21175;SDS011;10746;50.178;8.186;2022-12-07T01:43:33;12.50;;;6.73;;
21175;SDS011;10746;50.178;8.186;2022-12-07T01:46:01;14.93;;;6.90;;
21175;SDS011;10746;50.178;8.186;2022-12-07T01:48:32;13.67;;;6.63;;
21175;SDS011;10746;50.178;8.186;2022-12-07T01:51:03;11.00;;;6.43;;
21175;SDS011;10746;50.178;8.186;2022-12-07T01:53:33;11.43;;;6.60;;
21175;SDS011;10746;50.178;8.186;2022-12-07T01:56:02;12.93;;;6.20;;
21175;SDS011;10746;50.178;8.186;2022-12-07T01:58:30;12.90;;;6.87;;
21175;SDS011;10746;50.178;8.186;2022-12-07T02:00:57;11.93;;;6.37;;
21175;SDS011;10746;50.178;8.186;2022-12-07T02:03:25;14.10;;;7.20;;
21175;SDS011;10746;50.178;8.186;2022-12-07T02:05:59;15.70;;;6.50;;
21175;SDS011;10746;50.178;8.186;2022-12-07T02:08:26;13.10;;;6.73;;
21175;SDS011;10746;50.178;8.186;2022-12-07T02:10:53;12.03;;;6.60;;
21175;SDS011;10746;50.178;8.186;2022-12-07T02:13:21;12.13;;;6.23;;
21175;SDS011;10746;50.178;8.186;2022-12-07T02:15:57;13.07;;;6.07;;
21175;SDS011;10746;50.178;8.186;2022-12-07T02:18:38;11.33;;;5.83;;
21175;SDS011;10746;50.178;8.186;2022-12-07T02:21:16;12.97;;;5.90;;
21175;SDS011;10746;50.178;8.186;2022-12-07T02:23:58;11.20;;;6.13;;
21175;SDS011;10746;50.178;8.186;2022-12-07T02:29:52;10.27;;;5.53;;
21175;SDS011;10746;50.178;8.186;2022-12-07T02:32:24;7.23;;;4.30;;
21175;SDS011;10746;50.178;8.186;2022-12-07T02:34:58;8.90;;;5.23;;
21175;SDS011;10746;50.178;8.186;2022-12-07T02:37:33;11.73;;;5.67;;
21175;SDS011;10746;50.178;8.186;2022-12-07T02:40:05;10.20;;;5.60;;
21175;SDS011;10746;50.178;8.186;2022-12-07T02:42:37;11.47;;;5.50;;
21175;SDS011;10746;50.178;8.186;2022-12-07T02:45:09;9.57;;;5.80;;
21175;SDS011;10746;50.178;8.186;2022-12-07T02:47:39;7.33;;;4.97;;
21175;SDS011;10746;50.178;8.186;2022-12-07T02:50:07;10.93;;;5.97;;
21175;SDS011;10746;50.178;8.186;2022-12-07T02:52:35;9.83;;;5.53;;
21175;SDS011;10746;50.178;8.186;2022-12-07T02:55:01;9.73;;;6.20;;
21175;SDS011;10746;50.178;8.186;2022-12-07T02:57:34;10.77;;;6.00;;
21175;SDS011;10746;50.178;8.186;2022-12-07T03:00:13;10.40;;;6.20;;
21175;SDS011;10746;50.178;8.186;2022-12-07T03:02:46;12.47;;;6.50;;
21175;SDS011;10746;50.178;8.186;2022-12-07T03:05:25;12.30;;;6.03;;
21175;SDS011;10746;50.178;8.186;2022-12-07T03:08:06;10.57;;;6.27;;
21175;SDS011;10746;50.178;8.186;2022-12-07T03:10:40;12.37;;;6.70;;
21175;SDS011;10746;50.178;8.186;2022-12-07T03:13:16;9.40;;;5.83;;
21175;SDS011;10746;50.178;8.186;2022-12-07T03:15:51;12.63;;;6.70;;
21175;SDS011;10746;50.178;8.186;2022-12-07T03:18:24;11.70;;;6.80;;
21175;SDS011;10746;50.178;8.186;2022-12-07T03:20:55;11.57;;;6.57;;
21175;SDS011;10746;50.178;8.186;2022-12-07T03:23:26;13.23;;;7.13;;
21175;SDS011;10746;50.178;8.186;2022-12-07T03:25:55;15.17;;;7.10;;
21175;SDS011;10746;50.178;8.186;2022-12-07T03:28:24;14.07;;;7.13;;
21175;SDS011;10746;50.178;8.186;2022-12-07T03:30:57;14.27;;;7.33;;
21175;SDS011;10746;50.178;8.186;2022-12-07T03:33:30;12.40;;;6.40;;
21175;SDS011;10746;50.178;8.186;2022-12-07T03:36:02;14.10;;;7.57;;
21175;SDS011;10746;50.178;8.186;2022-12-07T03:38:33;15.97;;;7.53;;
21175;SDS011;10746;50.178;8.186;2022-12-07T03:41:04;14.47;;;7.63;;
21175;SDS011;10746;50.178;8.186;2022-12-07T03:43:35;12.60;;;7.00;;
21175;SDS011;10746;50.178;8.186;2022-12-07T03:46:06;16.80;;;8.70;;
21175;SDS011;10746;50.178;8.186;2022-12-07T03:48:43;13.60;;;7.90;;
21175;SDS011;10746;50.178;8.186;2022-12-07T03:51:19;14.00;;;7.30;;
21175;SDS011;10746;50.178;8.186;2022-12-07T03:53:51;13.33;;;7.50;;
21175;SDS011;10746;50.178;8.186;2022-12-07T03:56:23;15.80;;;8.27;;
21175;SDS011;10746;50.178;8.186;2022-12-07T03:58:52;16.47;;;9.33;;
21175;SDS011;10746;50.178;8.186;2022-12-07T04:01:22;14.93;;;7.83;;
21175;SDS011;10746;50.178;8.186;2022-12-07T04:03:49;16.30;;;8.40;;
21175;SDS011;10746;50.178;8.186;2022-12-07T04:06:16;17.67;;;8.70;;
21175;SDS011;10746;50.178;8.186;2022-12-07T04:08:43;15.20;;;8.07;;
21175;SDS011;10746;50.178;8.186;2022-12-07T04:11:10;16.13;;;8.17;;
21175;SDS011;10746;50.178;8.186;2022-12-07T04:13:36;14.50;;;8.13;;
21175;SDS011;10746;50.178;8.186;2022-12-07T04:16:17;15.60;;;8.00;;
21175;SDS011;10746;50.178;8.186;2022-12-07T04:18:45;17.33;;;8.90;;
21175;SDS011;10746;50.178;8.186;2022-12-07T04:21:12;17.70;;;9.13;;
21175;SDS011;10746;50.178;8.186;2022-12-07T04:23:39;14.33;;;8.03;;
21175;SDS011;10746;50.178;8.186;2022-12-07T04:26:05;16.23;;;8.83;;
21175;SDS011;10746;50.178;8.186;2022-12-07T04:28:32;17.37;;;9.10;;
21175;SDS011;10746;50.178;8.186;2022-12-07T04:30:59;18.73;;;8.13;;
21175;SDS011;10746;50.178;8.186;2022-12-07T04:33:26;16.87;;;8.77;;
21175;SDS011;10746;50.178;8.186;2022-12-07T04:35:54;16.77;;;9.23;;
21175;SDS011;10746;50.178;8.186;2022-12-07T04:38:20;15.80;;;9.30;;
21175;SDS011;10746;50.178;8.186;2022-12-07T04:40:47;16.03;;;9.53;;
21175;SDS011;10746;50.178;8.186;2022-12-07T04:43:14;15.30;;;8.87;;
21175;SDS011;10746;50.178;8.186;2022-12-07T04:45:44;17.97;;;8.47;;
21175;SDS011;10746;50.178;8.186;2022-12-07T04:48:12;17.83;;;8.87;;
21175;SDS011;10746;50.178;8.186;2022-12-07T04:50:39;17.57;;;9.63;;
21175;SDS011;10746;50.178;8.186;2022-12-07T04:53:07;18.57;;;8.80;;
21175;SDS011;10746;50.178;8.186;2022-12-07T04:55:33;22.13;;;9.63;;
21175;SDS011;10746;50.178;8.186;2022-12-07T04:58:00;18.10;;;9.17;;
21175;SDS011;10746;50.178;8.186;2022-12-07T05:00:27;15.53;;;8.97;;
21175;SDS011;10746;50.178;8.186;2022-12-07T05:02:54;20.17;;;8.70;;
21175;SDS011;10746;50.178;8.186;2022-12-07T05:05:20;16.47;;;8.60;;
21175;SDS011;10746;50.178;8.186;2022-12-07T05:07:47;19.80;;;8.70;;
21175;SDS011;10746;50.178;8.186;2022-12-07T05:10:15;18.17;;;8.73;;
21175;SDS011;10746;50.178;8.186;2022-12-07T05:12:42;16.33;;;8.90;;
21175;SDS011;10746;50.178;8.186;2022-12-07T05:15:10;16.57;;;8.63;;
21175;SDS011;10746;50.178;8.186;2022-12-07T05:17:37;18.93;;;9.50;;
21175;SDS011;10746;50.178;8.186;2022-12-07T05:20:04;18.50;;;9.10;;
21175;SDS011;10746;50.178;8.186;2022-12-07T05:22:32;16.87;;;8.97;;
21175;SDS011;10746;50.178;8.186;2022-12-07T05:24:58;15.67;;;7.70;;
21175;SDS011;10746;50.178;8.186;2022-12-07T05:27:27;15.47;;;8.27;;
21175;SDS011;10746;50.178;8.186;2022-12-07T05:29:53;18.93;;;8.80;;
21175;SDS011;10746;50.178;8.186;2022-12-07T05:32:20;15.90;;;8.20;;
21175;SDS011;10746;50.178;8.186;2022-12-07T05:34:47;17.63;;;8.93;;
21175;SDS011;10746;50.178;8.186;2022-12-07T05:37:13;19.77;;;8.67;;
21175;SDS011;10746;50.178;8.186;2022-12-07T05:39:40;21.07;;;9.20;;
21175;SDS011;10746;50.178;8.186;2022-12-07T05:42:08;19.50;;;9.27;;
21175;SDS011;10746;50.178;8.186;2022-12-07T05:44:40;14.53;;;7.87;;
21175;SDS011;10746;50.178;8.186;2022-12-07T05:47:08;17.70;;;8.87;;
21175;SDS011;10746;50.178;8.186;2022-12-07T05:49:35;14.93;;;8.63;;
21175;SDS011;10746;50.178;8.186;2022-12-07T05:52:02;17.07;;;8.40;;
21175;SDS011;10746;50.178;8.186;2022-12-07T05:54:29;16.87;;;8.20;;
21175;SDS011;10746;50.178;8.186;2022-12-07T05:56:56;17.40;;;8.80;;
21175;SDS011;10746;50.178;8.186;2022-12-07T05:59:23;14.23;;;8.03;;
21175;SDS011;10746;50.178;8.186;2022-12-07T06:01:51;15.90;;;8.30;;
21175;SDS011;10746;50.178;8.186;2022-12-07T06:04:19;13.47;;;7.97;;
21175;SDS011;10746;50.178;8.186;2022-12-07T06:06:46;15.30;;;8.23;;
21175;SDS011;10746;50.178;8.186;2022-12-07T06:09:12;16.03;;;8.57;;
21175;SDS011;10746;50.178;8.186;2022-12-07T06:11:40;15.50;;;7.70;;
21175;SDS011;10746;50.178;8.186;2022-12-07T06:14:25;18.57;;;8.70;;
21175;SDS011;10746;50.178;8.186;2022-12-07T06:16:53;13.30;;;7.70;;
21175;SDS011;10746;50.178;8.186;2022-12-07T06:19:20;12.33;;;7.43;;
21175;SDS011;10746;50.178;8.186;2022-12-07T06:21:47;18.37;;;9.17;;
21175;SDS011;10746;50.178;8.186;2022-12-07T06:24:14;14.53;;;7.70;;
21175;SDS011;10746;50.178;8.186;2022-12-07T06:26:42;13.70;;;7.70;;
21175;SDS011;10746;50.178;8.186;2022-12-07T06:29:09;14.07;;;7.53;;
21175;SDS011;10746;50.178;8.186;2022-12-07T06:31:36;14.77;;;7.57;;
21175;SDS011;10746;50.178;8.186;2022-12-07T06:34:05;11.43;;;6.57;;
21175;SDS011;10746;50.178;8.186;2022-12-07T06:36:33;13.00;;;7.30;;
21175;SDS011;10746;50.178;8.186;2022-12-07T06:39:00;8.67;;;5.90;;
21175;SDS011;10746;50.178;8.186;2022-12-07T06:41:27;12.10;;;7.00;;
21175;SDS011;10746;50.178;8.186;2022-12-07T06:43:54;10.27;;;7.00;;
21175;SDS011;10746;50.178;8.186;2022-12-07T06:46:20;11.27;;;6.87;;
21175;SDS011;10746;50.178;8.186;2022-12-07T06:48:47;12.00;;;7.13;;
21175;SDS011;10746;50.178;8.186;2022-12-07T06:51:15;15.00;;;7.47;;
21175;SDS011;10746;50.178;8.186;2022-12-07T06:53:42;11.83;;;7.13;;
21175;SDS011;10746;50.178;8.186;2022-12-07T06:56:09;11.17;;;6.40;;
21175;SDS011;10746;50.178;8.186;2022-12-07T06:58:36;13.97;;;6.80;;
21175;SDS011;10746;50.178;8.186;2022-12-07T07:01:07;10.60;;;6.30;;
21175;SDS011;10746;50.178;8.186;2022-12-07T07:03:35;12.27;;;6.53;;
21175;SDS011;10746;50.178;8.186;2022-12-07T07:06:01;12.83;;;6.87;;
21175;SDS011;10746;50.178;8.186;2022-12-07T07:08:29;13.07;;;6.60;;
21175;SDS011;10746;50.178;8.186;2022-12-07T07:10:56;10.60;;;6.77;;
21175;SDS011;10746;50.178;8.186;2022-12-07T07:13:23;11.80;;;6.43;;
21175;SDS011;10746;50.178;8.186;2022-12-07T07:15:50;11.53;;;6.70;;
21175;SDS011;10746;50.178;8.186;2022-12-07T07:18:17;11.23;;;6.70;;
21175;SDS011;10746;50.178;8.186;2022-12-07T07:20:43;12.03;;;6.53;;
21175;SDS011;10746;50.178;8.186;2022-12-07T07:23:10;12.70;;;6.73;;
21175;SDS011;10746;50.178;8.186;2022-12-07T07:25:38;13.70;;;6.40;;
21175;SDS011;10746;50.178;8.186;2022-12-07T07:28:05;11.13;;;6.77;;
21175;SDS011;10746;50.178;8.186;2022-12-07T07:30:32;10.47;;;6.50;;
21175;SDS011;10746;50.178;8.186;2022-12-07T07:32:59;10.77;;;6.50;;
21175;SDS011;10746;50.178;8.186;2022-12-07T07:35:27;11.10;;;6.87;;
21175;SDS011;10746;50.178;8.186;2022-12-07T07:37:55;13.50;;;6.67;;
21175;SDS011;10746;50.178;8.186;2022-12-07T07:40:22;12.50;;;6.83;;
21175;SDS011;10746;50.178;8.186;2022-12-07T07:42:50;15.60;;;7.27;;
21175;SDS011;10746;50.178;8.186;2022-12-07T07:45:18;13.67;;;6.67;;
21175;SDS011;10746;50.178;8.186;2022-12-07T07:47:46;13.10;;;6.27;;
21175;SDS011;10746;50.178;8.186;2022-12-07T07:50:13;12.47;;;6.23;;
21175;SDS011;10746;50.178;8.186;2022-12-07T07:52:41;7.87;;;5.20;;
21175;SDS011;10746;50.178;8.186;2022-12-07T07:55:07;9.43;;;4.93;;
21175;SDS011;10746;50.178;8.186;2022-12-07T07:57:35;8.53;;;5.47;;
21175;SDS011;10746;50.178;8.186;2022-12-07T08:00:04;9.37;;;5.80;;
21175;SDS011;10746;50.178;8.186;2022-12-07T08:02:32;9.27;;;5.33;;
21175;SDS011;10746;50.178;8.186;2022-12-07T08:04:59;8.83;;;6.03;;
21175;SDS011;10746;50.178;8.186;2022-12-07T08:07:26;10.33;;;6.20;;
21175;SDS011;10746;50.178;8.186;2022-12-07T08:09:53;11.20;;;6.60;;
21175;SDS011;10746;50.178;8.186;2022-12-07T08:12:20;11.70;;;6.90;;
21175;SDS011;10746;50.178;8.186;2022-12-07T08:14:47;12.40;;;6.40;;
21175;SDS011;10746;50.178;8.186;2022-12-07T08:17:15;11.03;;;6.87;;
21175;SDS011;10746;50.178;8.186;2022-12-07T08:19:41;11.30;;;6.67;;
21175;SDS011;10746;50.178;8.186;2022-12-07T08:22:08;12.70;;;7.13;;
21175;SDS011;10746;50.178;8.186;2022-12-07T08:24:35;12.93;;;7.83;;
21175;SDS011;10746;50.178;8.186;2022-12-07T08:27:02;11.90;;;6.60;;
21175;SDS011;10746;50.178;8.186;2022-12-07T08:29:29;13.30;;;7.47;;
21175;SDS011;10746;50.178;8.186;2022-12-07T08:31:56;14.17;;;7.43;;
21175;SDS011;10746;50.178;8.186;2022-12-07T08:34:24;12.80;;;6.67;;
21175;SDS011;10746;50.178;8.186;2022-12-07T08:36:51;9.73;;;6.70;;
21175;SDS011;10746;50.178;8.186;2022-12-07T08:39:18;13.70;;;7.03;;
21175;SDS011;10746;50.178;8.186;2022-12-07T08:41:45;13.93;;;7.67;;
21175;SDS011;10746;50.178;8.186;2022-12-07T08:44:11;11.97;;;7.17;;
21175;SDS011;10746;50.178;8.186;2022-12-07T08:46:38;13.77;;;7.53;;
21175;SDS011;10746;50.178;8.186;2022-12-07T08:49:10;13.07;;;7.00;;
21175;SDS011;10746;50.178;8.186;2022-12-07T08:51:40;10.70;;;7.03;;
21175;SDS011;10746;50.178;8.186;2022-12-07T08:54:09;10.40;;;6.00;;
21175;SDS011;10746;50.178;8.186;2022-12-07T08:56:37;10.90;;;6.50;;
21175;SDS011;10746;50.178;8.186;2022-12-07T08:59:04;8.23;;;5.50;;
21175;SDS011;10746;50.178;8.186;2022-12-07T09:01:32;14.10;;;6.83;;
21175;SDS011;10746;50.178;8.186;2022-12-07T09:03:59;9.90;;;6.40;;
21175;SDS011;10746;50.178;8.186;2022-12-07T09:06:25;12.97;;;7.73;;
21175;SDS011;10746;50.178;8.186;2022-12-07T09:08:55;11.67;;;6.63;;
21175;SDS011;10746;50.178;8.186;2022-12-07T09:11:24;11.57;;;6.30;;
21175;SDS011;10746;50.178;8.186;2022-12-07T09:13:51;11.47;;;6.40;;
21175;SDS011;10746;50.178;8.186;2022-12-07T09:16:18;9.47;;;5.97;;
21175;SDS011;10746;50.178;8.186;2022-12-07T09:18:45;9.93;;;6.00;;
21175;SDS011;10746;50.178;8.186;2022-12-07T09:21:12;11.57;;;6.87;;
21175;SDS011;10746;50.178;8.186;2022-12-07T09:23:38;12.17;;;6.83;;
21175;SDS011;10746;50.178;8.186;2022-12-07T09:26:08;9.47;;;5.30;;
21175;SDS011;10746;50.178;8.186;2022-12-07T09:28:35;8.17;;;6.03;;
21175;SDS011;10746;50.178;8.186;2022-12-07T09:31:02;11.27;;;5.93;;
21175;SDS011;10746;50.178;8.186;2022-12-07T09:33:29;8.13;;;5.80;;
21175;SDS011;10746;50.178;8.186;2022-12-07T09:35:56;11.50;;;7.20;;
21175;SDS011;10746;50.178;8.186;2022-12-07T09:38:23;9.90;;;5.83;;
21175;SDS011;10746;50.178;8.186;2022-12-07T09:40:51;8.20;;;5.83;;
21175;SDS011;10746;50.178;8.186;2022-12-07T09:43:22;10.40;;;6.70;;
21175;SDS011;10746;50.178;8.186;2022-12-07T09:45:50;13.20;;;6.90;;
21175;SDS011;10746;50.178;8.186;2022-12-07T09:48:20;12.67;;;6.57;;
21175;SDS011;10746;50.178;8.186;2022-12-07T09:50:49;11.30;;;6.60;;
21175;SDS011;10746;50.178;8.186;2022-12-07T09:53:19;10.57;;;6.57;;
21175;SDS011;10746;50.178;8.186;2022-12-07T09:55:53;11.73;;;7.10;;
21175;SDS011;10746;50.178;8.186;2022-12-07T09:58:23;8.80;;;6.20;;
21175;SDS011;10746;50.178;8.186;2022-12-07T10:00:52;9.93;;;6.10;;
21175;SDS011;10746;50.178;8.186;2022-12-07T10:03:21;10.23;;;6.73;;
21175;SDS011;10746;50.178;8.186;2022-12-07T10:05:49;9.03;;;6.20;;
21175;SDS011;10746;50.178;8.186;2022-12-07T10:08:17;11.63;;;6.43;;
21175;SDS011;10746;50.178;8.186;2022-12-07T10:10:45;11.00;;;6.57;;
21175;SDS011;10746;50.178;8.186;2022-12-07T10:13:15;7.80;;;6.27;;
21175;SDS011;10746;50.178;8.186;2022-12-07T10:15:51;11.40;;;6.60;;
21175;SDS011;10746;50.178;8.186;2022-12-07T10:18:20;9.13;;;5.53;;
21175;SDS011;10746;50.178;8.186;2022-12-07T10:21:00;12.67;;;6.03;;
21175;SDS011;10746;50.178;8.186;2022-12-07T10:23:33;6.53;;;4.97;;
21175;SDS011;10746;50.178;8.186;2022-12-07T10:26:09;9.67;;;4.87;;
21175;SDS011;10746;50.178;8.186;2022-12-07T10:28:46;5.60;;;4.57;;
21175;SDS011;10746;50.178;8.186;2022-12-07T10:31:16;8.60;;;4.67;;
21175;SDS011;10746;50.178;8.186;2022-12-07T10:33:49;9.50;;;5.00;;
21175;SDS011;10746;50.178;8.186;2022-12-07T10:36:19;7.53;;;4.80;;
21175;SDS011;10746;50.178;8.186;2022-12-07T10:38:50;10.87;;;4.80;;
21175;SDS011;10746;50.178;8.186;2022-12-07T10:41:18;10.73;;;5.77;;
21175;SDS011;10746;50.178;8.186;2022-12-07T10:43:46;7.40;;;5.50;;
21175;SDS011;10746;50.178;8.186;2022-12-07T10:49:24;12.17;;;4.77;;
21175;SDS011;10746;50.178;8.186;2022-12-07T10:52:10;9.57;;;4.50;;
21175;SDS011;10746;50.178;8.186;2022-12-07T10:54:45;8.03;;;4.43;;
21175;SDS011;10746;50.178;8.186;2022-12-07T10:57:27;8.07;;;4.33;;
21175;SDS011;10746;50.178;8.186;2022-12-07T11:00:04;9.90;;;4.57;;
21175;SDS011;10746;50.178;8.186;2022-12-07T11:02:45;9.00;;;4.53;;
21175;SDS011;10746;50.178;8.186;2022-12-07T11:05:33;6.57;;;4.03;;
21175;SDS011;10746;50.178;8.186;2022-12-07T11:08:09;6.00;;;3.87;;
21175;SDS011;10746;50.178;8.186;2022-12-07T11:10:44;5.40;;;3.97;;
21175;SDS011;10746;50.178;8.186;2022-12-07T11:13:22;14.73;;;4.73;;
21175;SDS011;10746;50.178;8.186;2022-12-07T11:16:01;7.17;;;4.07;;
21175;SDS011;10746;50.178;8.186;2022-12-07T11:18:36;6.30;;;3.60;;
21175;SDS011;10746;50.178;8.186;2022-12-07T11:21:11;5.97;;;3.50;;
21175;SDS011;10746;50.178;8.186;2022-12-07T11:23:48;4.03;;;3.63;;
21175;SDS011;10746;50.178;8.186;2022-12-07T11:26:25;11.50;;;4.50;;
21175;SDS011;10746;50.178;8.186;2022-12-07T11:29:11;4.73;;;3.30;;
21175;SDS011;10746;50.178;8.186;2022-12-07T11:31:55;9.47;;;3.70;;
21175;SDS011;10746;50.178;8.186;2022-12-07T11:34:35;10.67;;;5.20;;
21175;SDS011;10746;50.178;8.186;2022-12-07T11:37:07;7.43;;;4.13;;
21175;SDS011;10746;50.178;8.186;2022-12-07T11:39:39;5.83;;;3.93;;
21175;SDS011;10746;50.178;8.186;2022-12-07T11:42:12;3.97;;;3.10;;
21175;SDS011;10746;50.178;8.186;2022-12-07T11:44:46;5.63;;;3.00;;
21175;SDS011;10746;50.178;8.186;2022-12-07T11:47:19;4.13;;;3.13;;
21175;SDS011;10746;50.178;8.186;2022-12-07T11:49:53;4.63;;;3.23;;
21175;SDS011;10746;50.178;8.186;2022-12-07T11:52:25;7.53;;;4.50;;
21175;SDS011;10746;50.178;8.186;2022-12-07T11:55:14;8.13;;;3.97;;
21175;SDS011;10746;50.178;8.186;2022-12-07T11:57:46;6.33;;;3.33;;
21175;SDS011;10746;50.178;8.186;2022-12-07T12:00:18;7.90;;;4.73;;
21175;SDS011;10746;50.178;8.186;2022-12-07T12:02:46;5.43;;;3.20;;
21175;SDS011;10746;50.178;8.186;2022-12-07T12:05:20;6.63;;;4.80;;
21175;SDS011;10746;50.178;8.186;2022-12-07T12:07:49;6.07;;;3.80;;
21175;SDS011;10746;50.178;8.186;2022-12-07T12:10:24;7.00;;;5.00;;
21175;SDS011;10746;50.178;8.186;2022-12-07T12:13:03;6.40;;;4.00;;
21175;SDS011;10746;50.178;8.186;2022-12-07T12:16:00;6.37;;;4.30;;
21175;SDS011;10746;50.178;8.186;2022-12-07T12:18:40;7.10;;;3.80;;
21175;SDS011;10746;50.178;8.186;2022-12-07T12:21:23;7.30;;;3.63;;
21175;SDS011;10746;50.178;8.186;2022-12-07T12:23:55;9.10;;;4.37;;
21175;SDS011;10746;50.178;8.186;2022-12-07T12:26:25;3.63;;;2.87;;
21175;SDS011;10746;50.178;8.186;2022-12-07T12:28:55;6.50;;;3.37;;
21175;SDS011;10746;50.178;8.186;2022-12-07T12:31:32;14.77;;;6.03;;
21175;SDS011;10746;50.178;8.186;2022-12-07T12:34:10;8.77;;;3.00;;
21175;SDS011;10746;50.178;8.186;2022-12-07T12:37:00;7.83;;;3.30;;
21175;SDS011;10746;50.178;8.186;2022-12-07T12:39:27;9.33;;;3.07;;
21175;SDS011;10746;50.178;8.186;2022-12-07T12:41:55;3.83;;;2.57;;
21175;SDS011;10746;50.178;8.186;2022-12-07T12:47:51;9.27;;;3.70;;
21175;SDS011;10746;50.178;8.186;2022-12-07T12:50:23;7.00;;;4.80;;
21175;SDS011;10746;50.178;8.186;2022-12-07T12:52:55;9.23;;;4.00;;
21175;SDS011;10746;50.178;8.186;2022-12-07T12:58:38;4.73;;;2.90;;
21175;SDS011;10746;50.178;8.186;2022-12-07T13:10:25;10.43;;;4.40;;
21175;SDS011;10746;50.178;8.186;2022-12-07T13:13:04;10.33;;;3.97;;
21175;SDS011;10746;50.178;8.186;2022-12-07T13:15:54;5.20;;;3.93;;
21175;SDS011;10746;50.178;8.186;2022-12-07T13:25:31;7.50;;;4.03;;
21175;SDS011;10746;50.178;8.186;2022-12-07T13:28:04;6.43;;;3.60;;
21175;SDS011;10746;50.178;8.186;2022-12-07T13:30:40;6.90;;;4.13;;
21175;SDS011;10746;50.178;8.186;2022-12-07T13:33:12;7.07;;;4.30;;
21175;SDS011;10746;50.178;8.186;2022-12-07T13:35:40;7.50;;;4.03;;
21175;SDS011;10746;50.178;8.186;2022-12-07T13:38:16;4.40;;;4.10;;
21175;SDS011;10746;50.178;8.186;2022-12-07T13:41:00;2.33;;;2.23;;
21175;SDS011;10746;50.178;8.186;2022-12-07T13:43:28;3.70;;;1.73;;
21175;SDS011;10746;50.178;8.186;2022-12-07T13:45:56;3.63;;;1.73;;
21175;SDS011;10746;50.178;8.186;2022-12-07T13:48:24;2.23;;;2.03;;
21175;SDS011;10746;50.178;8.186;2022-12-07T13:50:57;3.03;;;2.60;;
21175;SDS011;10746;50.178;8.186;2022-12-07T13:53:26;3.13;;;2.73;;
21175;SDS011;10746;50.178;8.186;2022-12-07T13:55:55;2.60;;;2.30;;
21175;SDS011;10746;50.178;8.186;2022-12-07T13:58:24;3.27;;;1.50;;
21175;SDS011;10746;50.178;8.186;2022-12-07T14:00:53;3.83;;;1.70;;
21175;SDS011;10746;50.178;8.186;2022-12-07T14:03:23;4.53;;;2.70;;
21175;SDS011;10746;50.178;8.186;2022-12-07T14:06:04;4.27;;;2.60;;
21175;SDS011;10746;50.178;8.186;2022-12-07T14:08:33;4.23;;;2.17;;
21175;SDS011;10746;50.178;8.186;2022-12-07T14:11:00;2.70;;;1.90;;
21175;SDS011;10746;50.178;8.186;2022-12-07T14:13:30;3.13;;;2.03;;
21175;SDS011;10746;50.178;8.186;2022-12-07T14:15:59;2.67;;;2.10;;
21175;SDS011;10746;50.178;8.186;2022-12-07T14:18:26;4.03;;;2.13;;
21175;SDS011;10746;50.178;8.186;2022-12-07T14:21:02;3.97;;;2.30;;
21175;SDS011;10746;50.178;8.186;2022-12-07T14:23:30;4.57;;;2.57;;
21175;SDS011;10746;50.178;8.186;2022-12-07T14:26:05;6.77;;;3.20;;
21175;SDS011;10746;50.178;8.186;2022-12-07T14:28:35;2.53;;;2.33;;
21175;SDS011;10746;50.178;8.186;2022-12-07T14:31:03;3.33;;;2.67;;
21175;SDS011;10746;50.178;8.186;2022-12-07T14:33:37;2.70;;;1.90;;
21175;SDS011;10746;50.178;8.186;2022-12-07T14:36:04;2.43;;;2.23;;
21175;SDS011;10746;50.178;8.186;2022-12-07T14:38:31;4.50;;;2.73;;
21175;SDS011;10746;50.178;8.186;2022-12-07T14:40:58;6.03;;;2.30;;
21175;SDS011;10746;50.178;8.186;2022-12-07T14:43:46;2.47;;;2.00;;
21175;SDS011;10746;50.178;8.186;2022-12-07T14:46:13;3.80;;;2.40;;
21175;SDS011;10746;50.178;8.186;2022-12-07T14:48:40;9.37;;;3.50;;
21175;SDS011;10746;50.178;8.186;2022-12-07T14:51:07;8.10;;;4.37;;
21175;SDS011;10746;50.178;8.186;2022-12-07T14:53:41;11.77;;;4.03;;
21175;SDS011;10746;50.178;8.186;2022-12-07T14:56:11;8.07;;;3.90;;
21175;SDS011;10746;50.178;8.186;2022-12-07T14:58:40;6.80;;;3.03;;
21175;SDS011;10746;50.178;8.186;2022-12-07T15:01:08;5.07;;;2.50;;
21175;SDS011;10746;50.178;8.186;2022-12-07T15:03:35;7.50;;;3.37;;
21175;SDS011;10746;50.178;8.186;2022-12-07T15:06:03;4.77;;;3.57;;
21175;SDS011;10746;50.178;8.186;2022-12-07T15:08:31;4.97;;;2.30;;
21175;SDS011;10746;50.178;8.186;2022-12-07T15:10:58;2.90;;;2.60;;
21175;SDS011;10746;50.178;8.186;2022-12-07T15:13:25;5.47;;;1.80;;
21175;SDS011;10746;50.178;8.186;2022-12-07T15:16:11;1.60;;;1.50;;
21175;SDS011;10746;50.178;8.186;2022-12-07T15:18:42;4.20;;;3.20;;
21175;SDS011;10746;50.178;8.186;2022-12-07T15:21:10;5.53;;;2.07;;
21175;SDS011;10746;50.178;8.186;2022-12-07T15:23:40;3.13;;;1.80;;